createdAt,value
2019-05-23T00:02:37.318Z,6.80
2019-05-23T00:05:15.920Z,4.53
2019-05-23T00:07:45.243Z,6.57
2019-05-23T00:10:20.747Z,4.70
2019-05-23T00:13:01.725Z,8.87
2019-05-23T00:15:35.573Z,6.37
2019-05-23T00:18:05.970Z,4.47
2019-05-23T00:20:35.604Z,4.90
2019-05-23T00:23:05.352Z,5.20
2019-05-23T00:25:44.727Z,5.10
2019-05-23T00:28:15.142Z,7.33
2019-05-23T00:30:55.822Z,6.17
2019-05-23T00:33:28.005Z,4.33
2019-05-23T00:35:59.258Z,6.47
2019-05-23T00:38:30.064Z,6.13
2019-05-23T00:40:59.694Z,8.03
2019-05-23T00:43:29.431Z,5.73
2019-05-23T00:45:59.942Z,5.17
2019-05-23T00:48:30.254Z,6.63
2019-05-23T00:51:06.725Z,10.10
2019-05-23T00:53:37.659Z,6.60
2019-05-23T00:56:09.022Z,9.83
2019-05-23T00:58:38.477Z,8.13
2019-05-23T01:01:09.122Z,7.33
2019-05-23T01:03:41.227Z,8.03
2019-05-23T01:06:10.421Z,8.80
2019-05-23T01:08:40.337Z,6.93
2019-05-23T01:11:09.299Z,8.75
2019-05-23T01:13:39.842Z,7.40
2019-05-23T01:16:08.732Z,7.90
2019-05-23T01:18:39.203Z,11.77
2019-05-23T01:21:29.948Z,7.60
2019-05-23T01:24:05.142Z,9.53
2019-05-23T01:26:34.314Z,7.97
2019-05-23T01:29:06.143Z,6.77
2019-05-23T01:31:38.143Z,11.03
2019-05-23T01:34:09.180Z,9.03
2019-05-23T01:36:38.100Z,10.77
2019-05-23T01:39:09.985Z,10.27
2019-05-23T01:41:39.538Z,9.30
2019-05-23T01:44:10.296Z,9.83
2019-05-23T01:46:39.890Z,10.13
2019-05-23T01:49:09.040Z,8.90
2019-05-23T01:51:38.175Z,10.17
2019-05-23T01:54:07.514Z,9.63
2019-05-23T01:56:37.314Z,9.07
2019-05-23T01:59:06.207Z,10.53
2019-05-23T02:01:35.409Z,10.23
2019-05-23T02:04:04.332Z,10.93
2019-05-23T02:06:33.331Z,11.10
2019-05-23T02:09:02.844Z,8.50
2019-05-23T02:11:31.749Z,8.33
2019-05-23T02:14:00.840Z,7.73
2019-05-23T02:16:31.702Z,8.87
2019-05-23T02:19:00.670Z,8.50
2019-05-23T02:21:30.981Z,8.67
2019-05-23T02:24:00.457Z,10.03
2019-05-23T02:26:31.030Z,9.60
2019-05-23T02:29:00.686Z,9.28
2019-05-23T02:31:29.907Z,6.90
2019-05-23T02:34:05.185Z,8.33
2019-05-23T02:36:34.550Z,6.80
2019-05-23T02:39:34.951Z,9.50
2019-05-23T02:42:19.962Z,6.03
2019-05-23T02:44:50.496Z,7.33
2019-05-23T02:47:29.526Z,7.67
2019-05-23T02:50:00.006Z,7.10
2019-05-23T02:52:38.916Z,7.07
2019-05-23T02:55:12.910Z,7.53
2019-05-23T02:57:42.970Z,7.23
2019-05-23T03:00:54.103Z,7.73
2019-05-23T03:03:24.373Z,6.37
2019-05-23T03:05:55.341Z,5.03
2019-05-23T03:08:26.983Z,5.37
2019-05-23T03:11:04.056Z,6.43
2019-05-23T03:13:35.709Z,5.67
2019-05-23T03:16:05.828Z,5.27
2019-05-23T03:18:40.010Z,4.43
2019-05-23T03:21:08.961Z,4.30
2019-05-23T03:23:38.554Z,4.60
2019-05-23T03:26:56.980Z,4.30
2019-05-23T03:29:23.570Z,4.40
2019-05-23T03:31:59.124Z,4.43
2019-05-23T03:34:31.640Z,7.43
2019-05-23T03:37:00.877Z,4.50
2019-05-23T03:39:43.517Z,6.93
2019-05-23T03:42:12.655Z,5.33
2019-05-23T03:44:43.341Z,5.90
2019-05-23T03:47:16.436Z,5.70
2019-05-23T03:49:45.432Z,7.80
2019-05-23T03:52:16.365Z,8.20
2019-05-23T03:54:49.047Z,7.27
2019-05-23T03:57:19.367Z,8.93
2019-05-23T03:59:50.449Z,11.03
2019-05-23T04:02:32.621Z,11.90
2019-05-23T04:05:02.654Z,8.47
2019-05-23T04:07:32.531Z,10.03
2019-05-23T04:10:01.668Z,12.13
2019-05-23T04:12:31.428Z,11.53
2019-05-23T04:15:00.719Z,9.63
2019-05-23T04:17:29.902Z,9.63
2019-05-23T04:19:59.451Z,13.83
2019-05-23T04:22:29.318Z,11.37
2019-05-23T04:25:01.869Z,9.60
2019-05-23T04:27:29.555Z,8.77
2019-05-23T04:29:58.578Z,10.43
2019-05-23T04:32:27.357Z,10.93
2019-05-23T04:34:56.221Z,11.30
2019-05-23T04:37:25.142Z,10.50
2019-05-23T04:39:54.173Z,12.67
2019-05-23T04:42:27.392Z,13.27
2019-05-23T04:44:56.122Z,14.00
2019-05-23T04:47:25.910Z,15.67
2019-05-23T04:49:54.738Z,18.53
2019-05-23T04:52:34.180Z,15.53
2019-05-23T04:55:03.494Z,17.00
2019-05-23T04:57:32.448Z,17.90
2019-05-23T05:00:01.671Z,18.50
2019-05-23T05:02:30.628Z,18.80
2019-05-23T05:04:59.563Z,19.37
2019-05-23T05:07:28.481Z,17.73
2019-05-23T05:09:57.496Z,17.03
2019-05-23T05:12:26.363Z,17.77
2019-05-23T05:14:55.365Z,20.20
2019-05-23T05:17:24.586Z,17.97
2019-05-23T05:19:53.388Z,20.17
2019-05-23T05:22:22.907Z,21.17
2019-05-23T05:24:51.760Z,21.70
2019-05-23T05:27:21.624Z,18.90
2019-05-23T05:29:50.506Z,21.60
2019-05-23T05:32:20.511Z,23.87
2019-05-23T05:34:49.522Z,17.60
2019-05-23T05:37:18.393Z,21.70
2019-05-23T05:39:48.035Z,23.17
2019-05-23T05:42:17.082Z,23.03
2019-05-23T05:44:46.348Z,25.97
2019-05-23T05:47:15.838Z,26.70
2019-05-23T05:49:44.595Z,22.87
2019-05-23T05:52:13.576Z,26.90
2019-05-23T05:54:42.681Z,23.40
2019-05-23T05:57:11.761Z,27.80
2019-05-23T05:59:40.919Z,28.47
2019-05-23T06:02:12.580Z,30.27
2019-05-23T06:04:41.411Z,28.70
2019-05-23T06:07:36.697Z,27.70
2019-05-23T06:10:11.129Z,28.67
2019-05-23T06:12:40.428Z,28.57
2019-05-23T06:15:10.560Z,30.07
2019-05-23T06:17:39.697Z,30.50
2019-05-23T06:20:12.645Z,28.73
2019-05-23T06:22:41.978Z,29.27
2019-05-23T06:25:12.924Z,31.90
2019-05-23T06:27:42.364Z,29.00
2019-05-23T06:30:13.583Z,29.50
2019-05-23T06:32:42.548Z,27.10
2019-05-23T06:35:13.126Z,26.13
2019-05-23T06:37:42.582Z,26.67
2019-05-23T06:40:33.903Z,23.73
2019-05-23T06:43:02.959Z,24.33
2019-05-23T06:45:32.147Z,29.40
2019-05-23T06:48:01.532Z,25.10
2019-05-23T06:50:30.915Z,26.53
2019-05-23T06:52:59.710Z,22.40
2019-05-23T06:55:28.671Z,29.00
2019-05-23T06:57:57.707Z,26.50
2019-05-23T07:00:28.150Z,28.73
2019-05-23T07:02:59.876Z,26.63
2019-05-23T07:05:32.905Z,23.07
2019-05-23T07:08:02.388Z,23.97
2019-05-23T07:10:31.280Z,24.87
2019-05-23T07:13:00.269Z,22.30
2019-05-23T07:15:29.799Z,22.57
2019-05-23T07:18:00.654Z,26.20
2019-05-23T07:20:29.619Z,21.53
2019-05-23T07:22:58.862Z,21.40
2019-05-23T07:25:28.335Z,20.20
2019-05-23T07:27:57.160Z,17.27
2019-05-23T07:30:27.048Z,19.30
2019-05-23T07:32:56.987Z,18.03
2019-05-23T07:35:26.570Z,17.00
2019-05-23T07:37:55.505Z,18.90
2019-05-23T07:40:26.191Z,19.27
2019-05-23T07:42:55.931Z,15.40
2019-05-23T07:45:30.252Z,16.67
2019-05-23T07:47:59.362Z,15.90
2019-05-23T07:50:28.294Z,14.70
2019-05-23T07:52:58.913Z,19.23
2019-05-23T07:55:37.160Z,16.27
2019-05-23T07:58:06.403Z,14.63
2019-05-23T08:00:38.332Z,18.50
2019-05-23T08:03:09.493Z,15.80
2019-05-23T08:05:38.690Z,14.07
2019-05-23T08:08:07.771Z,18.87
2019-05-23T08:10:36.758Z,15.32
2019-05-23T08:13:05.594Z,16.70
2019-05-23T08:15:35.961Z,12.82
2019-05-23T08:18:05.755Z,11.75
2019-05-23T08:20:34.909Z,14.10
2019-05-23T08:23:03.672Z,13.93
2019-05-23T08:25:32.756Z,12.30
2019-05-23T08:28:01.904Z,13.58
2019-05-23T08:30:32.279Z,14.53
2019-05-23T08:33:01.166Z,14.87
2019-05-23T08:35:30.489Z,10.50
2019-05-23T08:38:00.263Z,12.75
2019-05-23T08:40:30.718Z,10.05
2019-05-23T08:42:59.776Z,11.38
2019-05-23T08:45:29.129Z,13.55
2019-05-23T08:47:58.365Z,8.75
2019-05-23T08:50:27.257Z,10.15
2019-05-23T08:52:56.462Z,9.38
2019-05-23T08:55:26.431Z,10.78
2019-05-23T08:57:55.345Z,6.95
2019-05-23T09:00:26.903Z,8.20
2019-05-23T09:02:58.752Z,8.03
2019-05-23T09:05:30.377Z,10.65
2019-05-23T09:07:59.974Z,7.62
2019-05-23T09:10:29.629Z,9.00
2019-05-23T09:12:58.758Z,6.72
2019-05-23T09:15:27.767Z,7.35
2019-05-23T09:17:56.855Z,7.83
2019-05-23T09:20:26.068Z,6.45
2019-05-23T09:22:54.957Z,11.90
2019-05-23T09:25:23.707Z,9.08
2019-05-23T09:27:53.325Z,8.58
2019-05-23T09:30:23.820Z,7.47
2019-05-23T09:32:53.272Z,7.08
2019-05-23T09:35:22.641Z,9.93
2019-05-23T09:37:51.721Z,8.63
2019-05-23T09:40:21.141Z,7.70
2019-05-23T09:42:50.116Z,12.55
2019-05-23T09:45:19.429Z,9.18
2019-05-23T09:47:50.925Z,7.80
2019-05-23T09:50:20.808Z,8.80
2019-05-23T09:52:49.648Z,7.20
2019-05-23T09:55:18.751Z,6.80
2019-05-23T09:57:47.682Z,9.60
2019-05-23T10:00:20.063Z,6.20
2019-05-23T10:02:48.897Z,7.22
2019-05-23T10:05:17.782Z,8.68
2019-05-23T10:07:46.629Z,8.20
2019-05-23T10:10:17.674Z,5.05
2019-05-23T10:12:46.603Z,7.60
2019-05-23T10:15:42.434Z,5.40
2019-05-23T10:18:14.960Z,6.15
2019-05-23T10:20:45.147Z,6.08
2019-05-23T10:23:14.118Z,5.62
2019-05-23T10:25:43.042Z,5.65
2019-05-23T10:28:11.902Z,5.85
2019-05-23T10:30:40.953Z,3.92
2019-05-23T10:33:12.757Z,6.15
2019-05-23T10:35:58.552Z,6.90
2019-05-23T10:38:11.583Z,8.30
2019-05-23T10:40:40.536Z,6.80
2019-05-23T10:43:10.305Z,6.33
2019-05-23T10:45:39.203Z,6.10
2019-05-23T10:48:10.593Z,5.55
2019-05-23T10:50:58.595Z,6.08
2019-05-23T10:53:27.473Z,6.30
2019-05-23T10:55:56.270Z,5.67
2019-05-23T10:58:26.838Z,8.38
2019-05-23T11:00:56.734Z,9.78
2019-05-23T11:03:26.728Z,11.40
2019-05-23T11:05:55.590Z,8.05
2019-05-23T11:08:28.881Z,8.38
2019-05-23T11:10:56.216Z,7.42
2019-05-23T11:13:25.118Z,9.80
2019-05-23T11:15:53.971Z,8.63
2019-05-23T11:18:23.159Z,8.38
2019-05-23T11:20:52.094Z,7.72
2019-05-23T11:23:25.681Z,8.15
2019-05-23T11:25:54.597Z,7.75
2019-05-23T11:28:23.854Z,9.85
2019-05-23T11:30:55.157Z,7.20
2019-05-23T11:33:25.152Z,8.23
2019-05-23T11:35:53.980Z,6.90
2019-05-23T11:38:23.368Z,6.47
2019-05-23T11:40:52.256Z,7.37
2019-05-23T11:43:21.104Z,7.03
2019-05-23T11:46:09.152Z,6.28
2019-05-23T11:48:38.622Z,6.58
2019-05-23T11:51:07.433Z,6.58
2019-05-23T11:53:36.225Z,9.63
2019-05-23T11:56:05.105Z,6.95
2019-05-23T11:58:34.199Z,5.25
2019-05-23T12:01:21.305Z,4.83
2019-05-23T12:03:54.963Z,6.85
2019-05-23T12:06:26.566Z,6.95
2019-05-23T12:08:55.669Z,5.10
2019-05-23T12:11:24.607Z,4.83
2019-05-23T12:13:53.438Z,5.20
2019-05-23T12:16:23.477Z,5.55
2019-05-23T12:18:52.366Z,4.70
2019-05-23T12:21:21.162Z,4.97
2019-05-23T12:23:50.018Z,6.90
2019-05-23T12:26:18.940Z,6.40
2019-05-23T12:28:47.778Z,7.40
2019-05-23T12:31:17.938Z,6.05
2019-05-23T12:33:46.785Z,4.22
2019-05-23T12:36:16.241Z,4.20
2019-05-23T12:38:45.077Z,5.60
2019-05-23T12:41:14.402Z,3.85
2019-05-23T12:43:43.326Z,3.67
2019-05-23T12:46:12.343Z,4.60
2019-05-23T12:49:03.472Z,4.22
2019-05-23T12:51:34.962Z,4.37
2019-05-23T12:54:04.006Z,4.42
2019-05-23T12:56:33.920Z,6.83
2019-05-23T12:59:05.674Z,4.22
2019-05-23T13:01:36.560Z,3.52
2019-05-23T13:04:09.964Z,4.08
2019-05-23T13:06:36.525Z,5.60
2019-05-23T13:09:08.653Z,3.67
2019-05-23T13:11:37.943Z,5.33
2019-05-23T13:14:07.626Z,5.60
2019-05-23T13:16:36.482Z,4.20
2019-05-23T13:19:05.427Z,4.03
2019-05-23T13:21:34.339Z,6.80
2019-05-23T13:24:03.245Z,3.80
2019-05-23T13:26:32.022Z,4.20
2019-05-23T13:29:00.869Z,5.00
2019-05-23T13:31:29.996Z,3.42
2019-05-23T13:33:58.821Z,5.55
2019-05-23T13:36:27.730Z,6.03
2019-05-23T13:38:56.655Z,6.95
2019-05-23T13:41:25.396Z,4.37
2019-05-23T13:43:54.316Z,4.03
2019-05-23T13:46:23.268Z,3.37
2019-05-23T13:48:52.138Z,5.62
2019-05-23T13:51:20.943Z,6.60
2019-05-23T13:53:49.856Z,3.83
2019-05-23T13:56:19.144Z,4.05
2019-05-23T13:58:48.208Z,4.53
2019-05-23T14:01:18.199Z,3.92
2019-05-23T14:03:47.060Z,4.72
2019-05-23T14:06:15.900Z,3.77
2019-05-23T14:08:44.770Z,3.30
2019-05-23T14:11:13.906Z,4.58
2019-05-23T14:13:43.139Z,2.40
2019-05-23T14:16:12.174Z,3.10
2019-05-23T14:18:41.286Z,3.90
2019-05-23T14:21:10.390Z,3.67
2019-05-23T14:23:39.291Z,2.62
2019-05-23T14:26:09.107Z,2.52
2019-05-23T14:28:38.191Z,3.10
2019-05-23T14:31:14.711Z,3.47
2019-05-23T14:33:59.335Z,3.40
2019-05-23T14:36:37.832Z,5.08
2019-05-23T14:39:09.989Z,3.98
2019-05-23T14:41:45.859Z,6.00
2019-05-23T14:44:15.233Z,3.30
2019-05-23T14:46:55.270Z,2.95
2019-05-23T14:49:30.089Z,2.67
2019-05-23T14:52:17.782Z,6.80
2019-05-23T14:54:49.564Z,4.80
2019-05-23T14:57:18.633Z,5.30
2019-05-23T14:59:47.444Z,2.40
2019-05-23T15:02:19.326Z,2.22
2019-05-23T15:04:48.231Z,2.22
2019-05-23T15:07:17.142Z,2.85
2019-05-23T15:09:47.692Z,1.95
2019-05-23T15:12:19.442Z,2.87
2019-05-23T15:14:48.441Z,2.65
2019-05-23T15:17:19.729Z,4.40
2019-05-23T15:19:48.665Z,1.37
2019-05-23T15:22:17.484Z,1.77
2019-05-23T15:24:46.327Z,2.60
2019-05-23T15:27:15.637Z,2.05
2019-05-23T15:29:44.505Z,1.67
2019-05-23T15:32:13.356Z,1.90
2019-05-23T15:34:42.345Z,1.90
2019-05-23T15:37:11.567Z,2.05
2019-05-23T15:39:40.483Z,1.90
2019-05-23T15:42:09.659Z,1.57
2019-05-23T15:44:38.476Z,2.10
2019-05-23T15:47:07.375Z,2.98
2019-05-23T15:49:37.902Z,2.87
2019-05-23T15:52:16.994Z,2.37
2019-05-23T15:54:50.893Z,1.60
2019-05-23T15:57:23.498Z,1.32
2019-05-23T15:59:59.787Z,1.67
2019-05-23T16:02:33.207Z,5.80
2019-05-23T16:05:04.151Z,2.20
2019-05-23T16:07:33.186Z,4.20
2019-05-23T16:10:03.410Z,3.42
2019-05-23T16:12:33.111Z,2.52
2019-05-23T16:15:01.987Z,4.83
2019-05-23T16:17:30.893Z,3.27
2019-05-23T16:19:59.642Z,4.28
2019-05-23T16:22:28.810Z,3.60
2019-05-23T16:24:57.638Z,3.80
2019-05-23T16:27:26.597Z,3.37
2019-05-23T16:29:55.442Z,4.60
2019-05-23T16:32:24.476Z,4.12
2019-05-23T16:34:53.252Z,4.55
2019-05-23T16:37:22.114Z,3.60
2019-05-23T16:39:50.911Z,7.92
2019-05-23T16:42:20.039Z,11.28
2019-05-23T16:44:48.906Z,8.83
2019-05-23T16:47:17.801Z,4.75
2019-05-23T16:49:46.947Z,21.45
2019-05-23T16:52:16.202Z,23.07
2019-05-23T16:54:47.113Z,5.35
2019-05-23T16:57:31.507Z,3.87
2019-05-23T17:00:11.079Z,4.15
2019-05-23T17:02:53.564Z,4.75
2019-05-23T17:05:40.602Z,5.28
2019-05-23T17:08:20.921Z,5.62
2019-05-23T17:10:55.071Z,6.45
2019-05-23T17:13:29.249Z,7.65
2019-05-23T17:16:07.088Z,7.97
2019-05-23T17:18:50.447Z,7.67
2019-05-23T17:21:31.640Z,5.58
2019-05-23T17:24:19.699Z,3.72
2019-05-23T17:26:53.906Z,11.70
2019-05-23T17:29:39.959Z,4.53
2019-05-23T17:32:10.768Z,7.17
2019-05-23T17:34:39.647Z,5.20
2019-05-23T17:37:10.372Z,5.10
2019-05-23T17:39:39.966Z,5.65
2019-05-23T17:42:08.795Z,3.70
2019-05-23T17:44:37.664Z,3.17
2019-05-23T17:47:06.762Z,3.15
2019-05-23T17:49:35.905Z,7.33
2019-05-23T17:52:05.093Z,3.83
2019-05-23T17:54:33.951Z,4.40
2019-05-23T17:57:02.794Z,4.92
2019-05-23T17:59:31.753Z,4.50
2019-05-23T18:02:01.561Z,8.45
2019-05-23T18:04:30.360Z,5.42
2019-05-23T18:06:59.637Z,5.30
2019-05-23T18:09:30.060Z,7.20
2019-05-23T18:11:59.835Z,5.67
2019-05-23T18:14:29.232Z,6.97
2019-05-23T18:16:58.115Z,10.48
2019-05-23T18:19:27.141Z,7.33
2019-05-23T18:21:56.155Z,7.15
2019-05-23T18:24:25.633Z,5.58
2019-05-23T18:26:54.516Z,5.92
2019-05-23T18:29:23.656Z,4.92
2019-05-23T18:31:53.278Z,6.55
2019-05-23T18:34:23.781Z,5.60
2019-05-23T18:36:52.850Z,9.80
2019-05-23T18:39:22.947Z,7.60
2019-05-23T18:41:52.403Z,4.95
2019-05-23T18:44:21.934Z,4.25
2019-05-23T18:46:52.791Z,6.10
2019-05-23T18:49:22.358Z,5.80
2019-05-23T18:51:51.141Z,15.25
2019-05-23T18:54:20.197Z,4.03
2019-05-23T18:56:49.515Z,5.20
2019-05-23T18:59:19.418Z,5.95
2019-05-23T19:01:48.370Z,5.10
2019-05-23T19:04:17.194Z,3.42
2019-05-23T19:06:46.881Z,4.00
2019-05-23T19:09:19.440Z,4.87
2019-05-23T19:11:48.338Z,8.25
2019-05-23T19:14:17.729Z,3.90
2019-05-23T19:16:47.246Z,4.15
2019-05-23T19:19:16.098Z,3.80
2019-05-23T19:21:45.279Z,5.42
2019-05-23T19:24:14.624Z,3.65
2019-05-23T19:26:43.701Z,5.85
2019-05-23T19:29:12.709Z,7.55
2019-05-23T19:31:41.655Z,8.03
2019-05-23T19:34:12.638Z,4.42
2019-05-23T19:36:41.412Z,12.35
2019-05-23T19:39:13.737Z,6.70
2019-05-23T19:41:42.603Z,5.03
2019-05-23T19:44:11.711Z,5.78
2019-05-23T19:46:40.904Z,5.65
2019-05-23T19:49:10.765Z,7.40
2019-05-23T19:51:39.917Z,10.38
2019-05-23T19:54:09.122Z,4.95
2019-05-23T19:56:38.603Z,4.50
2019-05-23T19:59:07.525Z,6.45
2019-05-23T20:01:52.311Z,8.25
2019-05-23T20:04:26.187Z,4.95
2019-05-23T20:06:52.632Z,5.83
2019-05-23T20:09:23.041Z,4.33
2019-05-23T20:11:54.809Z,6.22
2019-05-23T20:14:22.971Z,5.28
2019-05-23T20:16:52.259Z,6.60
2019-05-23T20:19:21.167Z,5.67
2019-05-23T20:21:50.046Z,4.10
2019-05-23T20:24:19.005Z,5.03
2019-05-23T20:26:47.884Z,6.92
2019-05-23T20:29:16.733Z,5.08
2019-05-23T20:31:48.611Z,7.65
2019-05-23T20:34:17.536Z,6.35
2019-05-23T20:36:46.329Z,5.30
2019-05-23T20:39:15.421Z,9.15
2019-05-23T20:41:44.312Z,3.15
2019-05-23T20:44:13.128Z,5.80
2019-05-23T20:46:42.329Z,3.58
2019-05-23T20:49:11.139Z,4.92
2019-05-23T20:51:40.692Z,8.13
2019-05-23T20:54:09.557Z,4.30
2019-05-23T20:56:38.435Z,4.62
2019-05-23T20:59:08.273Z,3.37
2019-05-23T21:01:40.458Z,4.03
2019-05-23T21:04:09.279Z,6.80
2019-05-23T21:06:38.150Z,5.40
2019-05-23T21:09:08.499Z,3.92
2019-05-23T21:11:37.446Z,5.33
2019-05-23T21:14:06.268Z,7.10
2019-05-23T21:16:35.002Z,10.13
2019-05-23T21:19:03.977Z,5.55
2019-05-23T21:21:32.812Z,5.60
2019-05-23T21:24:01.591Z,5.25
2019-05-23T21:26:30.545Z,5.33
2019-05-23T21:28:59.453Z,5.73
2019-05-23T21:31:28.354Z,4.60
2019-05-23T21:33:57.201Z,5.20
2019-05-23T21:36:26.111Z,5.53
2019-05-23T21:38:55.056Z,4.10
2019-05-23T21:41:23.825Z,6.03
2019-05-23T21:43:54.626Z,4.03
2019-05-23T21:46:23.521Z,5.17
2019-05-23T21:48:52.375Z,6.17
2019-05-23T21:51:21.208Z,3.57
2019-05-23T21:53:49.963Z,4.22
2019-05-23T21:56:18.775Z,5.30
2019-05-23T21:58:47.611Z,4.53
2019-05-23T22:01:41.808Z,6.30
2019-05-23T22:04:17.694Z,4.87
2019-05-23T22:07:03.202Z,7.00
2019-05-23T22:09:32.029Z,6.23
2019-05-23T22:12:01.621Z,5.50
2019-05-23T22:14:30.462Z,6.13
2019-05-23T22:16:59.574Z,3.97
2019-05-23T22:19:28.902Z,7.10
2019-05-23T22:21:58.004Z,5.13
2019-05-23T22:24:26.989Z,3.53
2019-05-23T22:26:55.813Z,8.63
2019-05-23T22:29:24.679Z,6.00
2019-05-23T22:31:56.387Z,7.33
2019-05-23T22:34:42.112Z,3.73
2019-05-23T22:37:21.888Z,4.73
2019-05-23T22:39:50.711Z,5.77
2019-05-23T22:42:21.045Z,8.43
2019-05-23T22:44:50.150Z,5.63
2019-05-23T22:47:18.977Z,5.07
2019-05-23T22:49:47.844Z,5.73
2019-05-23T22:52:16.775Z,4.57
2019-05-23T22:54:45.635Z,5.43
2019-05-23T22:57:16.192Z,5.93
2019-05-23T22:59:45.181Z,9.03
2019-05-23T23:02:15.860Z,4.97
2019-05-23T23:04:44.683Z,3.57
2019-05-23T23:07:13.533Z,3.83
2019-05-23T23:09:42.337Z,5.67
2019-05-23T23:12:11.266Z,4.17
2019-05-23T23:14:40.106Z,5.83
2019-05-23T23:17:08.948Z,9.10
2019-05-23T23:19:37.725Z,4.87
2019-05-23T23:22:07.969Z,7.35
2019-05-23T23:24:36.744Z,7.00
2019-05-23T23:27:05.599Z,5.00
2019-05-23T23:29:34.489Z,4.00
2019-05-23T23:32:04.073Z,8.00
2019-05-23T23:34:33.304Z,4.03
2019-05-23T23:37:02.055Z,7.47
2019-05-23T23:39:30.897Z,6.17
2019-05-23T23:41:59.704Z,5.87
2019-05-23T23:44:33.682Z,5.37
2019-05-23T23:47:22.269Z,4.70
2019-05-23T23:50:09.297Z,6.77
2019-05-23T23:52:56.125Z,5.40
2019-05-23T23:55:42.757Z,8.87
2019-05-23T23:58:10.849Z,6.43
